createdAt,value
2019-01-06T00:00:58.051Z,1.90
2019-01-06T00:03:39.636Z,2.50
2019-01-06T00:06:19.186Z,2.30
2019-01-06T00:08:52.922Z,2.10
2019-01-06T00:11:26.724Z,2.10
2019-01-06T00:14:01.207Z,2.40
2019-01-06T00:16:38.774Z,2.30
2019-01-06T00:20:15.514Z,2.50
2019-01-06T00:22:52.290Z,2.60
2019-01-06T00:27:29.550Z,2.37
2019-01-06T00:30:35.206Z,1.70
2019-01-06T00:33:27.759Z,1.77
2019-01-06T00:36:03.866Z,1.87
2019-01-06T00:38:37.914Z,1.90
2019-01-06T00:41:11.698Z,2.07
2019-01-06T00:44:52.776Z,1.50
2019-01-06T00:47:26.662Z,2.10
2019-01-06T00:52:01.794Z,1.90
2019-01-06T00:54:35.833Z,1.40
2019-01-06T00:57:10.810Z,2.00
2019-01-06T00:59:46.982Z,1.70
2019-01-06T01:02:25.009Z,1.77
2019-01-06T01:05:00.623Z,2.30
2019-01-06T01:07:34.674Z,1.97
2019-01-06T01:10:22.774Z,1.90
2019-01-06T01:13:02.404Z,1.57
2019-01-06T01:17:37.542Z,1.80
2019-01-06T01:20:11.358Z,2.07
2019-01-06T01:23:01.973Z,2.30
2019-01-06T01:26:07.926Z,2.20
2019-01-06T01:28:41.681Z,2.50
2019-01-06T01:31:15.670Z,1.90
2019-01-06T01:33:54.442Z,2.13
2019-01-06T01:36:44.571Z,2.33
2019-01-06T01:39:18.234Z,2.17
2019-01-06T01:41:52.604Z,2.50
2019-01-06T01:44:27.122Z,2.50
2019-01-06T01:47:09.798Z,2.50
2019-01-06T01:49:45.423Z,1.90
2019-01-06T01:53:23.389Z,2.10
2019-01-06T01:55:57.417Z,2.17
2019-01-06T02:00:36.698Z,1.93
2019-01-06T02:03:14.275Z,2.10
2019-01-06T02:07:52.937Z,2.20
2019-01-06T02:10:58.850Z,2.43
2019-01-06T02:13:50.558Z,2.40
2019-01-06T02:16:33.389Z,2.12
2019-01-06T02:21:14.424Z,1.73
2019-01-06T02:23:48.788Z,2.17
2019-01-06T02:26:22.462Z,2.53
2019-01-06T02:28:56.449Z,2.00
2019-01-06T02:33:37.877Z,2.37
2019-01-06T02:38:18.393Z,1.87
2019-01-06T02:40:52.153Z,2.00
2019-01-06T02:43:41.321Z,2.42
2019-01-06T02:46:17.158Z,2.00
2019-01-06T02:50:56.697Z,2.70
2019-01-06T02:53:33.383Z,2.47
2019-01-06T02:56:12.026Z,1.80
2019-01-06T02:58:46.062Z,2.30
2019-01-06T03:01:49.746Z,2.60
2019-01-06T03:06:26.906Z,2.20
2019-01-06T03:11:05.018Z,2.10
2019-01-06T03:13:40.790Z,2.47
2019-01-06T03:16:17.511Z,2.83
2019-01-06T03:18:55.366Z,2.30
2019-01-06T03:21:36.399Z,2.50
2019-01-06T03:26:12.995Z,2.53
2019-01-06T03:30:48.392Z,3.03
2019-01-06T03:33:22.154Z,2.60
2019-01-06T03:37:00.243Z,2.50
2019-01-06T03:39:47.995Z,1.60
2019-01-06T03:43:29.041Z,1.30
2019-01-06T03:46:02.788Z,1.20
2019-01-06T03:50:40.141Z,0.87
2019-01-06T03:54:14.293Z,1.13
2019-01-06T03:56:48.213Z,0.63
2019-01-06T03:59:23.765Z,0.90
2019-01-06T04:01:57.505Z,0.80
2019-01-06T04:04:33.226Z,1.10
2019-01-06T04:07:07.406Z,0.87
2019-01-06T04:09:59.335Z,1.10
2019-01-06T04:14:34.802Z,1.00
2019-01-06T04:17:12.605Z,1.00
2019-01-06T04:19:46.505Z,1.20
2019-01-06T04:22:20.225Z,1.10
2019-01-06T04:25:14.361Z,1.50
2019-01-06T04:27:50.158Z,1.20
2019-01-06T04:30:26.049Z,1.60
2019-01-06T04:35:04.790Z,1.13
2019-01-06T04:37:38.641Z,0.97
2019-01-06T04:40:13.270Z,1.13
2019-01-06T04:42:46.985Z,0.93
2019-01-06T04:45:21.717Z,1.13
2019-01-06T04:48:04.841Z,1.40
2019-01-06T04:50:38.753Z,1.30
2019-01-06T04:53:14.305Z,0.90
2019-01-06T04:55:48.085Z,1.13
2019-01-06T04:58:22.216Z,1.30
2019-01-06T05:00:56.105Z,1.20
2019-01-06T05:03:38.639Z,1.30
2019-01-06T05:06:12.528Z,1.10
2019-01-06T05:08:46.386Z,1.63
2019-01-06T05:11:20.067Z,1.50
2019-01-06T05:13:52.784Z,1.37
2019-01-06T05:16:32.452Z,1.50
2019-01-06T05:19:06.508Z,1.30
2019-01-06T05:21:50.453Z,1.60
2019-01-06T05:24:35.170Z,1.40
2019-01-06T05:28:16.375Z,1.60
2019-01-06T05:31:01.393Z,1.67
2019-01-06T05:33:35.455Z,1.80
2019-01-06T05:36:10.190Z,1.50
2019-01-06T05:38:47.884Z,1.80
2019-01-06T05:41:27.532Z,1.70
2019-01-06T05:44:01.205Z,1.53
2019-01-06T05:47:33.324Z,1.70
2019-01-06T05:50:06.995Z,1.80
2019-01-06T05:52:40.744Z,2.17
2019-01-06T05:55:14.740Z,2.20
2019-01-06T05:57:50.444Z,2.63
2019-01-06T06:00:24.236Z,2.20
2019-01-06T06:02:59.921Z,2.33
2019-01-06T06:05:43.187Z,2.70
2019-01-06T06:08:17.860Z,3.17
2019-01-06T06:10:59.665Z,2.77
2019-01-06T06:13:33.435Z,2.83
2019-01-06T06:16:38.364Z,2.73
2019-01-06T06:21:13.588Z,1.97
2019-01-06T06:25:48.761Z,2.30
2019-01-06T06:28:22.593Z,2.30
2019-01-06T06:30:58.801Z,2.40
2019-01-06T06:33:51.606Z,2.33
2019-01-06T06:36:28.188Z,2.60
2019-01-06T06:41:03.576Z,2.50
2019-01-06T06:43:38.099Z,2.60
2019-01-06T06:46:18.056Z,2.23
2019-01-06T06:48:58.716Z,2.27
2019-01-06T06:51:31.508Z,2.27
2019-01-06T06:54:08.540Z,2.50
2019-01-06T06:56:42.459Z,2.07
2019-01-06T06:59:20.187Z,2.40
2019-01-06T07:04:14.741Z,2.63
2019-01-06T07:08:52.040Z,2.53
2019-01-06T07:11:25.823Z,2.77
2019-01-06T07:13:59.765Z,3.03
2019-01-06T07:16:44.684Z,3.50
2019-01-06T07:19:17.408Z,4.07
2019-01-06T07:22:48.403Z,3.50
2019-01-06T07:25:21.128Z,2.77
2019-01-06T07:27:54.871Z,2.67
2019-01-06T07:30:30.875Z,2.90
2019-01-06T07:33:19.956Z,2.57
2019-01-06T07:35:53.848Z,2.50
2019-01-06T07:39:27.940Z,2.47
2019-01-06T07:42:01.528Z,2.57
2019-01-06T07:44:35.315Z,2.40
2019-01-06T07:47:14.839Z,1.97
2019-01-06T07:49:49.927Z,2.20
2019-01-06T07:54:30.079Z,2.87
2019-01-06T07:57:14.871Z,2.67
2019-01-06T08:00:19.067Z,2.97
2019-01-06T08:04:55.306Z,2.67
2019-01-06T08:07:29.067Z,2.73
2019-01-06T08:12:04.931Z,2.73
2019-01-06T08:16:45.220Z,2.37
2019-01-06T08:19:20.931Z,2.20
2019-01-06T08:24:02.207Z,2.50
2019-01-06T08:28:41.320Z,2.50
2019-01-06T08:31:13.687Z,2.10
2019-01-06T08:33:49.734Z,3.10
2019-01-06T08:36:24.484Z,2.23
2019-01-06T08:39:01.948Z,2.50
2019-01-06T08:41:35.871Z,2.33
2019-01-06T08:44:26.003Z,2.40
2019-01-06T08:48:00.807Z,2.10
2019-01-06T08:50:36.475Z,2.10
2019-01-06T08:53:12.090Z,2.30
2019-01-06T08:55:46.337Z,2.30
2019-01-06T08:58:20.811Z,2.30
2019-01-06T09:00:54.427Z,2.27
2019-01-06T09:03:28.338Z,2.40
2019-01-06T09:06:12.051Z,3.00
2019-01-06T09:08:49.759Z,2.67
2019-01-06T09:11:57.499Z,2.77
2019-01-06T09:14:50.382Z,3.60
2019-01-06T09:17:24.607Z,3.00
2019-01-06T09:19:58.491Z,2.53
2019-01-06T09:22:38.107Z,3.23
2019-01-06T09:25:15.815Z,3.10
2019-01-06T09:27:52.690Z,3.03
2019-01-06T09:30:26.339Z,2.60
2019-01-06T09:33:14.083Z,2.07
2019-01-06T09:37:49.790Z,2.17
2019-01-06T09:40:39.475Z,2.42
2019-01-06T09:43:24.270Z,2.30
2019-01-06T09:48:00.174Z,2.53
2019-01-06T09:51:06.199Z,3.40
2019-01-06T09:53:39.955Z,3.07
2019-01-06T09:56:30.755Z,3.30
2019-01-06T09:59:12.475Z,2.67
2019-01-06T10:01:46.437Z,3.03
2019-01-06T10:04:25.102Z,3.97
2019-01-06T10:07:02.747Z,2.83
2019-01-06T10:09:42.811Z,1.90
2019-01-06T10:12:16.566Z,1.47
2019-01-06T10:15:54.578Z,2.67
2019-01-06T10:18:36.123Z,1.97
2019-01-06T10:21:09.844Z,2.40
2019-01-06T10:23:43.390Z,2.37
2019-01-06T10:26:17.307Z,1.73
2019-01-06T10:28:59.866Z,1.60
2019-01-06T10:31:35.622Z,2.23
2019-01-06T10:34:10.330Z,3.40
2019-01-06T10:36:44.062Z,2.90
2019-01-06T10:39:17.918Z,2.77
2019-01-06T10:41:51.467Z,2.13
2019-01-06T10:44:25.201Z,2.10
2019-01-06T10:46:59.972Z,1.80
2019-01-06T10:49:38.684Z,1.98
2019-01-06T10:54:13.952Z,2.83
2019-01-06T10:56:52.668Z,1.80
2019-01-06T10:59:29.252Z,1.70
2019-01-06T11:02:02.023Z,1.80
2019-01-06T11:04:53.730Z,1.97
2019-01-06T11:07:28.612Z,1.80
2019-01-06T11:10:03.399Z,1.90
2019-01-06T11:12:36.076Z,1.90
2019-01-06T11:15:10.172Z,2.40
2019-01-06T11:19:51.923Z,2.10
2019-01-06T11:22:59.866Z,3.10
2019-01-06T11:25:38.070Z,2.43
2019-01-06T11:28:17.034Z,1.60
2019-01-06T11:30:52.619Z,1.47
2019-01-06T11:33:26.536Z,1.00
2019-01-06T11:36:00.328Z,1.30
2019-01-06T11:38:34.255Z,1.83
2019-01-06T11:41:08.327Z,1.82
2019-01-06T11:43:41.804Z,1.87
2019-01-06T11:46:47.481Z,1.97
2019-01-06T11:51:28.096Z,1.50
2019-01-06T11:54:02.692Z,2.07
2019-01-06T11:56:40.217Z,1.67
2019-01-06T11:59:15.544Z,1.63
2019-01-06T12:01:48.338Z,1.47
2019-01-06T12:04:24.890Z,1.60
2019-01-06T12:06:58.597Z,1.53
2019-01-06T12:09:32.260Z,1.77
2019-01-06T12:12:05.894Z,2.13
2019-01-06T12:14:46.818Z,2.77
2019-01-06T12:17:54.262Z,2.73
2019-01-06T12:20:27.890Z,2.57
2019-01-06T12:23:01.814Z,3.00
2019-01-06T12:25:37.370Z,2.30
2019-01-06T12:30:14.749Z,2.52
2019-01-06T12:32:49.403Z,1.73
2019-01-06T12:35:23.600Z,1.60
2019-01-06T12:39:59.782Z,2.23
2019-01-06T12:42:33.718Z,2.40
2019-01-06T12:45:11.722Z,2.03
2019-01-06T12:47:44.428Z,2.27
2019-01-06T12:50:17.150Z,2.30
2019-01-06T12:52:50.938Z,2.97
2019-01-06T12:57:32.266Z,2.85
2019-01-06T13:00:24.094Z,2.43
2019-01-06T13:02:57.898Z,2.75
2019-01-06T13:05:30.638Z,2.65
2019-01-06T13:08:04.469Z,2.30
2019-01-06T13:10:38.210Z,3.45
2019-01-06T13:13:12.040Z,1.87
2019-01-06T13:15:47.764Z,1.77
2019-01-06T13:18:21.812Z,2.12
2019-01-06T13:22:58.988Z,1.87
2019-01-06T13:25:46.777Z,1.50
2019-01-06T13:28:23.489Z,1.77
2019-01-06T13:31:04.088Z,1.98
2019-01-06T13:35:39.496Z,2.70
2019-01-06T13:38:16.104Z,1.92
2019-01-06T13:41:02.460Z,1.70
2019-01-06T13:43:28.916Z,1.60
2019-01-06T13:48:04.308Z,1.95
2019-01-06T13:52:39.592Z,1.83
2019-01-06T13:57:18.112Z,2.12
2019-01-06T13:59:50.903Z,2.50
2019-01-06T14:04:28.048Z,2.80
2019-01-06T14:07:33.854Z,3.00
2019-01-06T14:10:07.520Z,2.67
2019-01-06T14:12:40.207Z,3.40
2019-01-06T14:15:14.392Z,2.63
2019-01-06T14:17:51.072Z,2.90
2019-01-06T14:20:28.232Z,2.80
2019-01-06T14:23:37.028Z,3.33
2019-01-06T14:27:15.006Z,3.83
2019-01-06T14:29:58.435Z,4.67
2019-01-06T14:33:29.555Z,5.87
2019-01-06T14:38:08.095Z,5.60
2019-01-06T14:42:47.548Z,4.53
2019-01-06T14:45:21.521Z,4.00
2019-01-06T14:50:00.943Z,3.70
2019-01-06T14:52:34.879Z,5.70
2019-01-06T14:55:10.565Z,5.63
2019-01-06T14:59:50.821Z,5.63
2019-01-06T15:02:34.673Z,5.40
2019-01-06T15:05:09.413Z,5.17
2019-01-06T15:07:43.117Z,6.17
2019-01-06T15:10:28.217Z,5.70
2019-01-06T15:13:02.045Z,4.83
2019-01-06T15:16:38.477Z,5.43
2019-01-06T15:19:22.199Z,5.17
2019-01-06T15:22:26.114Z,5.87
2019-01-06T15:25:06.100Z,6.00
2019-01-06T15:27:45.747Z,6.00
2019-01-06T15:32:23.116Z,5.55
2019-01-06T15:37:00.367Z,5.90
2019-01-06T15:41:39.235Z,5.90
2019-01-06T15:44:23.919Z,7.10
2019-01-06T15:46:57.870Z,9.63
2019-01-06T15:49:35.681Z,13.67
2019-01-06T15:52:18.901Z,12.77
2019-01-06T15:54:54.753Z,10.40
2019-01-06T15:57:28.497Z,11.27
2019-01-06T16:00:18.273Z,12.30
2019-01-06T16:02:57.827Z,13.10
2019-01-06T16:06:29.791Z,13.17
2019-01-06T16:09:33.903Z,15.10
2019-01-06T16:12:12.635Z,19.30
2019-01-06T16:15:18.307Z,19.63
2019-01-06T16:18:54.335Z,20.93
2019-01-06T16:21:28.411Z,19.20
2019-01-06T16:26:09.935Z,15.70
2019-01-06T16:28:44.231Z,19.43
2019-01-06T16:33:24.687Z,22.13
2019-01-06T16:35:58.651Z,26.63
2019-01-06T16:38:32.403Z,22.20
2019-01-06T16:43:08.055Z,21.60
2019-01-06T16:45:43.686Z,19.40
2019-01-06T16:48:17.515Z,20.43
2019-01-06T16:50:51.130Z,20.90
2019-01-06T16:55:27.306Z,20.60
2019-01-06T16:58:01.523Z,29.43
2019-01-06T17:00:35.475Z,36.77
2019-01-06T17:03:10.698Z,49.43
2019-01-06T17:05:48.180Z,37.23
2019-01-06T17:08:22.216Z,33.23
2019-01-06T17:12:58.428Z,34.17
2019-01-06T17:15:35.969Z,25.40
2019-01-06T17:18:16.477Z,33.03
2019-01-06T17:20:51.108Z,38.13
2019-01-06T17:23:25.232Z,23.03
2019-01-06T17:26:00.879Z,23.90
2019-01-06T17:30:39.632Z,23.23
2019-01-06T17:33:13.608Z,17.97
2019-01-06T17:35:55.193Z,15.87
2019-01-06T17:38:28.513Z,14.33
2019-01-06T17:41:04.245Z,14.87
2019-01-06T17:43:53.830Z,15.70
2019-01-06T17:46:26.578Z,13.50
2019-01-06T17:51:02.911Z,13.30
2019-01-06T17:55:39.273Z,12.47
2019-01-06T17:58:26.838Z,13.13
2019-01-06T18:03:03.414Z,9.37
2019-01-06T18:06:41.639Z,10.43
2019-01-06T18:09:15.234Z,9.27
2019-01-06T18:11:55.735Z,8.87
2019-01-06T18:14:31.538Z,9.13
2019-01-06T18:17:11.094Z,9.33
2019-01-06T18:19:45.267Z,9.13
2019-01-06T18:22:19.898Z,9.43
2019-01-06T18:24:58.625Z,10.07
2019-01-06T18:27:36.646Z,9.63
2019-01-06T18:30:10.794Z,10.57
2019-01-06T18:34:46.074Z,10.50
2019-01-06T18:38:17.342Z,9.60
2019-01-06T18:40:54.881Z,9.90
2019-01-06T18:45:35.601Z,10.90
2019-01-06T18:48:10.193Z,10.30
2019-01-06T18:50:48.830Z,10.97
2019-01-06T18:53:26.643Z,12.00
2019-01-06T18:56:03.093Z,11.97
2019-01-06T18:58:44.784Z,12.03
2019-01-06T19:02:16.688Z,13.47
2019-01-06T19:04:50.776Z,13.37
2019-01-06T19:07:30.503Z,16.47
2019-01-06T19:12:06.715Z,16.37
2019-01-06T19:14:40.315Z,18.70
2019-01-06T19:18:16.489Z,18.37
2019-01-06T19:20:50.367Z,17.20
2019-01-06T19:23:43.141Z,17.73
2019-01-06T19:26:17.517Z,15.13
2019-01-06T19:30:54.867Z,14.83
2019-01-06T19:34:00.754Z,16.43
2019-01-06T19:36:41.499Z,14.60
2019-01-06T19:41:16.874Z,9.17
2019-01-06T19:43:50.847Z,10.03
2019-01-06T19:46:32.467Z,11.90
2019-01-06T19:49:05.200Z,10.17
2019-01-06T19:51:39.136Z,9.77
2019-01-06T19:56:16.504Z,14.87
2019-01-06T19:58:52.857Z,14.30
2019-01-06T20:01:26.872Z,14.80
2019-01-06T20:04:00.780Z,12.80
2019-01-06T20:06:37.463Z,8.33
2019-01-06T20:09:17.071Z,7.27
2019-01-06T20:11:49.772Z,8.43
2019-01-06T20:14:23.647Z,9.63
2019-01-06T20:17:02.409Z,10.40
2019-01-06T20:19:53.089Z,11.53
2019-01-06T20:22:26.728Z,11.97
2019-01-06T20:27:02.206Z,12.80
2019-01-06T20:31:37.482Z,13.27
2019-01-06T20:34:11.466Z,12.50
2019-01-06T20:36:45.190Z,12.10
2019-01-06T20:39:38.914Z,12.13
2019-01-06T20:44:14.130Z,10.67
2019-01-06T20:48:49.258Z,7.80
2019-01-06T20:51:23.197Z,10.63
2019-01-06T20:56:01.517Z,12.63
2019-01-06T20:58:35.375Z,16.00
2019-01-06T21:03:17.725Z,18.97
2019-01-06T21:06:01.416Z,24.23
2019-01-06T21:08:42.364Z,22.83
2019-01-06T21:11:34.938Z,22.63
2019-01-06T21:14:25.688Z,20.77
2019-01-06T21:17:01.304Z,17.30
2019-01-06T21:19:40.889Z,18.07
2019-01-06T21:22:16.505Z,16.67
2019-01-06T21:24:54.612Z,18.50
2019-01-06T21:27:28.421Z,21.07
2019-01-06T21:30:02.001Z,24.10
2019-01-06T21:32:35.877Z,27.53
2019-01-06T21:35:10.313Z,31.53
2019-01-06T21:37:44.137Z,31.03
2019-01-06T21:40:25.626Z,33.03
2019-01-06T21:45:02.034Z,25.27
2019-01-06T21:48:07.182Z,28.07
2019-01-06T21:50:40.818Z,26.40
2019-01-06T21:53:16.658Z,25.53
2019-01-06T21:55:51.242Z,22.90
2019-01-06T21:59:28.556Z,21.60
2019-01-06T22:04:08.799Z,21.20
2019-01-06T22:06:47.428Z,17.50
2019-01-06T22:09:20.107Z,18.73
2019-01-06T22:12:12.203Z,17.83
2019-01-06T22:14:45.959Z,17.13
2019-01-06T22:17:21.167Z,17.40
2019-01-06T22:19:55.891Z,15.97
2019-01-06T22:22:29.721Z,16.53
2019-01-06T22:25:18.627Z,19.47
2019-01-06T22:29:57.991Z,16.97
2019-01-06T22:32:31.734Z,16.47
2019-01-06T22:35:39.822Z,16.47
2019-01-06T22:39:11.726Z,15.63
2019-01-06T22:41:45.393Z,16.53
2019-01-06T22:46:21.229Z,17.47
2019-01-06T22:49:28.965Z,17.83
2019-01-06T22:52:02.746Z,19.37
2019-01-06T22:54:36.437Z,21.83
2019-01-06T22:57:26.977Z,23.93
2019-01-06T23:00:17.181Z,22.63
2019-01-06T23:04:52.564Z,22.07
2019-01-06T23:08:00.554Z,21.43
2019-01-06T23:10:42.201Z,22.27
2019-01-06T23:14:17.285Z,21.87
2019-01-06T23:18:56.529Z,19.80
2019-01-06T23:21:30.437Z,20.13
2019-01-06T23:24:06.546Z,20.53
2019-01-06T23:26:40.309Z,21.13
2019-01-06T23:29:15.913Z,21.53
2019-01-06T23:31:53.606Z,20.97
2019-01-06T23:34:29.845Z,20.30
2019-01-06T23:37:02.568Z,19.97
2019-01-06T23:40:39.797Z,20.33
2019-01-06T23:44:19.873Z,19.50
2019-01-06T23:48:00.586Z,19.70
2019-01-06T23:50:34.413Z,17.93
2019-01-06T23:53:13.022Z,19.03
2019-01-06T23:55:46.773Z,18.67
